Strona główna
METAR-TAF:

METAR-TAF

Lotnisko :

Port lotniczy Humberside

Humberside, Anglia

Szerokość geograficzna: 53-35N, Długość geograficzna: 000-21W, wysokość: 31 m

Aktualna obserwacja pogody

Raport powstał 15 minut temu, godzina 01:50 UTC
Wiatr 28 kt od południowy zachód
Temperatura 6°C
Wilgotność 75%
Ciśnienie 996 hPa
Widzialność 10 km lub więcej

METAR: EGNJ 170150Z AUTO 22028KT 9999 FEW023/// SCT028/// BKN034/// 06/02 Q0996

czas: 02:05 (02:05 UTC)

Prognoza

Raport powstał 3 godziny i 9 minut temu, godzina 22:56 UTC
Prognoza ważna od 17 godzina 00 UTC do 17 godzina 09 UTC
Wiatr 20 kt od południowy zachód w porywach dochodzący do 30 kt
Widzialność 10 km lub więcej
Rozproszone chmury na wysokości 3000 ft

TAF: EGNJ 162256Z 1700/1709 23020G30KT 9999 SCT030

Obserwacja i prognoza pogody dla ponad 4000 lotnisk (raport METAR i TAF).

Dostępne stacje oznaczono żółtymi i czerwonymi punktami na mapie.

Najedź kursorem aby zobaczyć nazwę stacji.

Kliknij aby zobaczyć obserwacje i prognozy pogody.

Aby zmienić mapę: kliknij na zielony przycisk z czarnym krzyżykiem, aby powiększyć; na zielony przycisk z myślnikiem, aby pomniejszyć; na zielone strzałki, aby przejść do map sąsiednich.


METAR-TAF: